New Haven, VT (05472)

11:59 PM EDT on March 24, 2017 (GMT -0400)
Budvar's Cove | | Change Station

Elev 421 ft 44.13 °N, 73.09 °W | Updated 57 seconds ago

Rain
Rain
34.7 °F
Feels Like 35 °F
N
0.0
Wind Variable Wind from SE
Gusts 0.0 mph

Today
High -- | Low -- °F
--% Chance of Precip.
Yesterday
High -- | Low -- °F
Precip. -- in
Pressure 30.07 in
Visibility 1.0 miles
Clouds Overcast 1000 ft
Windchill 35 °F
Dew Point 32 °F
Humidity 89%
Rainfall 0.25 in
Snow Depth Not available.
6:48 AM 7:10 PM
Waning Crescent, 11% visible
METAR K6B0 250335Z AUTO 00000KT 1SM DZ OVC010 01/01 A3007 RMK AO2 P0001 T00090005
Pressure 30.07 in
Visibility 1.0 miles
Clouds Overcast 1000 ft
Windchill 35 °F
Dew Point 32 °F
Humidity 89%
Rainfall 0.25 in
Snow Depth Not available.
6:48 AM 7:10 PM
Waning Crescent, 11% visible
METAR K6B0 250335Z AUTO 00000KT 1SM DZ OVC010 01/01 A3007 RMK AO2 P0001 T00090005

Get Severe Weather Alerts

Thanks for signing up!

Be on the lookout for a verification email in your inbox.

You'll start receiving the daily forecast at 8 AM.

×

10-Day Weather Forecast

Almanac

Astronomy

Mar. 24, 2017 Rise Set
Actual Time
Civil Twilight
Nautical Twilight
Astronomical Twilight
Moon
Length of Visible Light
Length of Day
Tomorrow will be .
, % of the Moon is Illuminated

Today's Extremes

State Highs State Lows

Community

WunderPhotos

Upload Photos

1,962,540 photos uploaded!

WunderBlog® & News

Nearby

Air Quality

  Air Quality AQ Index Pollutant
Not available.

Snow Depth

Station Depth Elevation

Earthquake Activity

City Distance Mag. Time & Date
Minimum magnitude displayed is 2.5.

Earthquake Activity

City Distance Mag. Time & Date
Minimum magnitude displayed is 2.5.

Coastal Water Temperatures

Place Temperature

Stations

Nearby Weather Stations

Station Location Temp. Windchill Dew Point Humidity Wind Precip. Elev Updated Type
                   

Watches & Warnings

There are currently no watches in effect.